sensor_id;sensor_type;location;lat;lon;timestamp;P1;durP1;ratioP1;P2;durP2;ratioP2
10947;SDS011;5526;42.070;24.752;2023-09-30T00:00:14;10.27;;;5.13;;
10947;SDS011;5526;42.070;24.752;2023-09-30T00:02:41;4.72;;;4.30;;
10947;SDS011;5526;42.070;24.752;2023-09-30T00:05:08;7.18;;;4.93;;
10947;SDS011;5526;42.070;24.752;2023-09-30T00:07:36;5.38;;;4.80;;
10947;SDS011;5526;42.070;24.752;2023-09-30T00:10:03;6.88;;;4.78;;
10947;SDS011;5526;42.070;24.752;2023-09-30T00:12:31;6.32;;;4.80;;
10947;SDS011;5526;42.070;24.752;2023-09-30T00:14:58;6.80;;;5.05;;
10947;SDS011;5526;42.070;24.752;2023-09-30T00:17:26;6.63;;;4.43;;
10947;SDS011;5526;42.070;24.752;2023-09-30T00:19:54;6.97;;;4.40;;
10947;SDS011;5526;42.070;24.752;2023-09-30T00:22:21;4.97;;;4.43;;
10947;SDS011;5526;42.070;24.752;2023-09-30T00:24:48;6.35;;;4.18;;
10947;SDS011;5526;42.070;24.752;2023-09-30T00:27:15;7.15;;;4.28;;
10947;SDS011;5526;42.070;24.752;2023-09-30T00:29:42;4.70;;;4.25;;
10947;SDS011;5526;42.070;24.752;2023-09-30T00:32:09;10.23;;;4.28;;
10947;SDS011;5526;42.070;24.752;2023-09-30T00:34:37;5.75;;;4.15;;
10947;SDS011;5526;42.070;24.752;2023-09-30T00:37:05;5.93;;;4.32;;
10947;SDS011;5526;42.070;24.752;2023-09-30T00:39:32;7.20;;;4.40;;
10947;SDS011;5526;42.070;24.752;2023-09-30T00:41:59;7.00;;;4.60;;
10947;SDS011;5526;42.070;24.752;2023-09-30T00:44:28;6.38;;;4.68;;
10947;SDS011;5526;42.070;24.752;2023-09-30T00:46:56;7.63;;;4.45;;
10947;SDS011;5526;42.070;24.752;2023-09-30T00:49:23;6.45;;;4.68;;
10947;SDS011;5526;42.070;24.752;2023-09-30T00:51:53;9.10;;;5.05;;
10947;SDS011;5526;42.070;24.752;2023-09-30T00:54:21;9.82;;;4.95;;
10947;SDS011;5526;42.070;24.752;2023-09-30T00:56:50;8.52;;;4.57;;
10947;SDS011;5526;42.070;24.752;2023-09-30T00:59:19;7.75;;;4.90;;
10947;SDS011;5526;42.070;24.752;2023-09-30T01:01:46;6.10;;;4.80;;
10947;SDS011;5526;42.070;24.752;2023-09-30T01:04:13;6.30;;;4.40;;
10947;SDS011;5526;42.070;24.752;2023-09-30T01:06:41;7.03;;;4.43;;
10947;SDS011;5526;42.070;24.752;2023-09-30T01:09:09;9.73;;;4.45;;
10947;SDS011;5526;42.070;24.752;2023-09-30T01:11:38;9.60;;;4.50;;
10947;SDS011;5526;42.070;24.752;2023-09-30T01:16:51;5.90;;;4.47;;
10947;SDS011;5526;42.070;24.752;2023-09-30T01:19:18;6.40;;;4.47;;
10947;SDS011;5526;42.070;24.752;2023-09-30T01:21:47;6.57;;;4.30;;
10947;SDS011;5526;42.070;24.752;2023-09-30T01:24:14;7.60;;;4.65;;
10947;SDS011;5526;42.070;24.752;2023-09-30T01:26:41;6.90;;;4.60;;
10947;SDS011;5526;42.070;24.752;2023-09-30T01:29:08;5.90;;;4.97;;
10947;SDS011;5526;42.070;24.752;2023-09-30T01:31:36;5.03;;;4.55;;
10947;SDS011;5526;42.070;24.752;2023-09-30T01:34:03;8.20;;;5.45;;
10947;SDS011;5526;42.070;24.752;2023-09-30T01:36:31;9.07;;;5.03;;
10947;SDS011;5526;42.070;24.752;2023-09-30T01:38:59;8.73;;;5.28;;
10947;SDS011;5526;42.070;24.752;2023-09-30T01:41:28;8.05;;;5.65;;
10947;SDS011;5526;42.070;24.752;2023-09-30T01:43:55;6.40;;;5.07;;
10947;SDS011;5526;42.070;24.752;2023-09-30T01:46:22;8.18;;;5.10;;
10947;SDS011;5526;42.070;24.752;2023-09-30T01:48:49;11.18;;;5.88;;
10947;SDS011;5526;42.070;24.752;2023-09-30T01:51:16;7.97;;;4.75;;
10947;SDS011;5526;42.070;24.752;2023-09-30T01:53:43;9.15;;;5.28;;
10947;SDS011;5526;42.070;24.752;2023-09-30T01:56:11;6.50;;;4.80;;
10947;SDS011;5526;42.070;24.752;2023-09-30T01:58:38;8.13;;;5.38;;
10947;SDS011;5526;42.070;24.752;2023-09-30T02:01:06;7.75;;;5.38;;
10947;SDS011;5526;42.070;24.752;2023-09-30T02:03:33;7.65;;;5.65;;
10947;SDS011;5526;42.070;24.752;2023-09-30T02:06:00;8.25;;;5.43;;
10947;SDS011;5526;42.070;24.752;2023-09-30T02:08:27;6.95;;;5.93;;
10947;SDS011;5526;42.070;24.752;2023-09-30T02:10:54;7.55;;;5.40;;
10947;SDS011;5526;42.070;24.752;2023-09-30T02:13:22;10.57;;;5.93;;
10947;SDS011;5526;42.070;24.752;2023-09-30T02:15:49;8.25;;;5.13;;
10947;SDS011;5526;42.070;24.752;2023-09-30T02:18:17;10.93;;;5.50;;
10947;SDS011;5526;42.070;24.752;2023-09-30T02:20:44;6.43;;;4.70;;
10947;SDS011;5526;42.070;24.752;2023-09-30T02:23:11;7.88;;;5.57;;
10947;SDS011;5526;42.070;24.752;2023-09-30T02:25:41;7.18;;;5.40;;
10947;SDS011;5526;42.070;24.752;2023-09-30T02:28:08;5.97;;;4.88;;
10947;SDS011;5526;42.070;24.752;2023-09-30T02:30:37;7.63;;;4.93;;
10947;SDS011;5526;42.070;24.752;2023-09-30T02:33:04;8.82;;;5.10;;
10947;SDS011;5526;42.070;24.752;2023-09-30T02:35:32;7.18;;;4.82;;
10947;SDS011;5526;42.070;24.752;2023-09-30T02:37:59;6.47;;;4.75;;
10947;SDS011;5526;42.070;24.752;2023-09-30T02:40:28;11.07;;;5.57;;
10947;SDS011;5526;42.070;24.752;2023-09-30T02:42:55;7.57;;;5.32;;
10947;SDS011;5526;42.070;24.752;2023-09-30T02:45:22;7.05;;;5.15;;
10947;SDS011;5526;42.070;24.752;2023-09-30T02:47:50;6.68;;;5.40;;
10947;SDS011;5526;42.070;24.752;2023-09-30T02:50:17;6.93;;;5.55;;
10947;SDS011;5526;42.070;24.752;2023-09-30T02:52:44;7.53;;;4.90;;
10947;SDS011;5526;42.070;24.752;2023-09-30T02:55:11;6.60;;;5.13;;
10947;SDS011;5526;42.070;24.752;2023-09-30T02:57:38;7.10;;;5.32;;
10947;SDS011;5526;42.070;24.752;2023-09-30T03:00:06;6.60;;;4.90;;
10947;SDS011;5526;42.070;24.752;2023-09-30T03:02:46;7.28;;;4.65;;
10947;SDS011;5526;42.070;24.752;2023-09-30T03:05:14;6.15;;;5.10;;
10947;SDS011;5526;42.070;24.752;2023-09-30T03:07:41;4.95;;;4.45;;
10947;SDS011;5526;42.070;24.752;2023-09-30T03:10:08;7.20;;;4.60;;
10947;SDS011;5526;42.070;24.752;2023-09-30T03:12:36;7.10;;;4.82;;
10947;SDS011;5526;42.070;24.752;2023-09-30T03:15:03;5.40;;;4.82;;
10947;SDS011;5526;42.070;24.752;2023-09-30T03:17:31;8.27;;;4.60;;
10947;SDS011;5526;42.070;24.752;2023-09-30T03:19:58;6.60;;;4.78;;
10947;SDS011;5526;42.070;24.752;2023-09-30T03:22:28;8.20;;;5.90;;
10947;SDS011;5526;42.070;24.752;2023-09-30T03:24:56;5.88;;;4.57;;
10947;SDS011;5526;42.070;24.752;2023-09-30T03:27:23;6.50;;;5.20;;
10947;SDS011;5526;42.070;24.752;2023-09-30T03:29:50;8.90;;;5.55;;
10947;SDS011;5526;42.070;24.752;2023-09-30T03:32:17;6.25;;;4.60;;
10947;SDS011;5526;42.070;24.752;2023-09-30T03:34:45;9.45;;;5.07;;
10947;SDS011;5526;42.070;24.752;2023-09-30T03:37:12;8.85;;;5.50;;
10947;SDS011;5526;42.070;24.752;2023-09-30T03:39:41;6.70;;;5.03;;
10947;SDS011;5526;42.070;24.752;2023-09-30T03:42:08;7.00;;;4.72;;
10947;SDS011;5526;42.070;24.752;2023-09-30T03:44:36;9.18;;;4.90;;
10947;SDS011;5526;42.070;24.752;2023-09-30T03:47:04;9.82;;;4.88;;
10947;SDS011;5526;42.070;24.752;2023-09-30T03:49:32;10.15;;;5.35;;
10947;SDS011;5526;42.070;24.752;2023-09-30T03:51:59;7.28;;;5.13;;
10947;SDS011;5526;42.070;24.752;2023-09-30T03:54:27;9.48;;;6.10;;
10947;SDS011;5526;42.070;24.752;2023-09-30T03:56:55;7.32;;;5.28;;
10947;SDS011;5526;42.070;24.752;2023-09-30T03:59:22;7.22;;;5.20;;
10947;SDS011;5526;42.070;24.752;2023-09-30T04:01:49;7.68;;;5.60;;
10947;SDS011;5526;42.070;24.752;2023-09-30T04:04:16;5.63;;;5.13;;
10947;SDS011;5526;42.070;24.752;2023-09-30T04:06:43;5.68;;;5.18;;
10947;SDS011;5526;42.070;24.752;2023-09-30T04:09:12;7.60;;;5.00;;
10947;SDS011;5526;42.070;24.752;2023-09-30T04:11:41;8.05;;;5.03;;
10947;SDS011;5526;42.070;24.752;2023-09-30T04:14:10;7.68;;;4.88;;
10947;SDS011;5526;42.070;24.752;2023-09-30T04:16:37;9.13;;;5.93;;
10947;SDS011;5526;42.070;24.752;2023-09-30T04:19:04;7.28;;;5.20;;
10947;SDS011;5526;42.070;24.752;2023-09-30T04:21:32;7.07;;;4.93;;
10947;SDS011;5526;42.070;24.752;2023-09-30T04:23:59;5.70;;;4.93;;
10947;SDS011;5526;42.070;24.752;2023-09-30T04:26:27;6.05;;;5.13;;
10947;SDS011;5526;42.070;24.752;2023-09-30T04:28:54;8.23;;;5.47;;
10947;SDS011;5526;42.070;24.752;2023-09-30T04:31:23;6.72;;;6.00;;
10947;SDS011;5526;42.070;24.752;2023-09-30T04:33:50;11.93;;;6.10;;
10947;SDS011;5526;42.070;24.752;2023-09-30T04:36:18;7.00;;;5.38;;
10947;SDS011;5526;42.070;24.752;2023-09-30T04:38:45;7.60;;;5.53;;
10947;SDS011;5526;42.070;24.752;2023-09-30T04:41:12;8.15;;;6.20;;
10947;SDS011;5526;42.070;24.752;2023-09-30T04:43:41;9.95;;;6.50;;
10947;SDS011;5526;42.070;24.752;2023-09-30T04:46:08;7.40;;;5.28;;
10947;SDS011;5526;42.070;24.752;2023-09-30T04:48:39;9.70;;;5.47;;
10947;SDS011;5526;42.070;24.752;2023-09-30T04:51:06;10.05;;;5.70;;
10947;SDS011;5526;42.070;24.752;2023-09-30T04:53:33;7.38;;;5.63;;
10947;SDS011;5526;42.070;24.752;2023-09-30T04:56:01;7.18;;;5.32;;
10947;SDS011;5526;42.070;24.752;2023-09-30T04:58:29;8.00;;;5.30;;
10947;SDS011;5526;42.070;24.752;2023-09-30T05:00:56;6.97;;;5.47;;
10947;SDS011;5526;42.070;24.752;2023-09-30T05:03:24;10.88;;;5.50;;
10947;SDS011;5526;42.070;24.752;2023-09-30T05:05:52;13.68;;;5.35;;
10947;SDS011;5526;42.070;24.752;2023-09-30T05:08:21;10.98;;;5.53;;
10947;SDS011;5526;42.070;24.752;2023-09-30T05:10:49;9.57;;;5.75;;
10947;SDS011;5526;42.070;24.752;2023-09-30T05:13:16;11.18;;;5.53;;
10947;SDS011;5526;42.070;24.752;2023-09-30T05:15:43;5.97;;;5.25;;
10947;SDS011;5526;42.070;24.752;2023-09-30T05:18:11;8.95;;;5.28;;
10947;SDS011;5526;42.070;24.752;2023-09-30T05:20:39;6.47;;;5.68;;
10947;SDS011;5526;42.070;24.752;2023-09-30T05:23:07;9.23;;;4.93;;
10947;SDS011;5526;42.070;24.752;2023-09-30T05:25:38;15.02;;;5.50;;
10947;SDS011;5526;42.070;24.752;2023-09-30T05:28:05;17.13;;;5.57;;
10947;SDS011;5526;42.070;24.752;2023-09-30T05:30:32;10.10;;;5.57;;
10947;SDS011;5526;42.070;24.752;2023-09-30T05:33:00;13.93;;;5.45;;
10947;SDS011;5526;42.070;24.752;2023-09-30T05:35:27;10.52;;;5.32;;
10947;SDS011;5526;42.070;24.752;2023-09-30T05:37:54;8.07;;;5.25;;
10947;SDS011;5526;42.070;24.752;2023-09-30T05:40:22;9.32;;;4.93;;
10947;SDS011;5526;42.070;24.752;2023-09-30T05:42:51;8.38;;;4.80;;
10947;SDS011;5526;42.070;24.752;2023-09-30T05:45:20;9.45;;;4.88;;
10947;SDS011;5526;42.070;24.752;2023-09-30T05:47:48;4.82;;;4.43;;
10947;SDS011;5526;42.070;24.752;2023-09-30T05:50:17;14.15;;;5.70;;
10947;SDS011;5526;42.070;24.752;2023-09-30T05:52:49;9.73;;;5.53;;
10947;SDS011;5526;42.070;24.752;2023-09-30T05:55:16;9.80;;;5.40;;
10947;SDS011;5526;42.070;24.752;2023-09-30T05:57:47;9.98;;;5.55;;
10947;SDS011;5526;42.070;24.752;2023-09-30T06:00:15;11.35;;;5.40;;
10947;SDS011;5526;42.070;24.752;2023-09-30T06:02:47;7.85;;;5.32;;
10947;SDS011;5526;42.070;24.752;2023-09-30T06:05:14;12.48;;;5.70;;
10947;SDS011;5526;42.070;24.752;2023-09-30T06:07:44;9.25;;;5.63;;
10947;SDS011;5526;42.070;24.752;2023-09-30T06:10:12;10.05;;;5.50;;
10947;SDS011;5526;42.070;24.752;2023-09-30T06:12:44;14.00;;;6.05;;
10947;SDS011;5526;42.070;24.752;2023-09-30T06:15:13;16.90;;;5.93;;
10947;SDS011;5526;42.070;24.752;2023-09-30T06:17:40;12.98;;;5.63;;
10947;SDS011;5526;42.070;24.752;2023-09-30T06:20:09;9.02;;;5.57;;
10947;SDS011;5526;42.070;24.752;2023-09-30T06:22:41;9.65;;;5.30;;
10947;SDS011;5526;42.070;24.752;2023-09-30T06:25:10;8.73;;;5.55;;
10947;SDS011;5526;42.070;24.752;2023-09-30T06:27:38;13.98;;;5.53;;
10947;SDS011;5526;42.070;24.752;2023-09-30T06:30:05;8.45;;;5.40;;
10947;SDS011;5526;42.070;24.752;2023-09-30T06:32:35;10.13;;;5.18;;
10947;SDS011;5526;42.070;24.752;2023-09-30T06:35:03;11.75;;;5.72;;
10947;SDS011;5526;42.070;24.752;2023-09-30T06:37:31;6.45;;;5.03;;
10947;SDS011;5526;42.070;24.752;2023-09-30T06:39:58;10.25;;;5.30;;
10947;SDS011;5526;42.070;24.752;2023-09-30T06:42:29;10.13;;;5.30;;
10947;SDS011;5526;42.070;24.752;2023-09-30T06:44:56;9.00;;;4.78;;
10947;SDS011;5526;42.070;24.752;2023-09-30T06:47:24;8.85;;;5.38;;
10947;SDS011;5526;42.070;24.752;2023-09-30T06:49:53;9.52;;;4.72;;
10947;SDS011;5526;42.070;24.752;2023-09-30T06:52:20;7.78;;;4.90;;
10947;SDS011;5526;42.070;24.752;2023-09-30T06:54:47;7.80;;;4.65;;
10947;SDS011;5526;42.070;24.752;2023-09-30T06:57:14;8.20;;;5.30;;
10947;SDS011;5526;42.070;24.752;2023-09-30T06:59:41;8.10;;;5.25;;
10947;SDS011;5526;42.070;24.752;2023-09-30T07:02:08;7.97;;;4.97;;
10947;SDS011;5526;42.070;24.752;2023-09-30T07:04:35;6.85;;;5.13;;
10947;SDS011;5526;42.070;24.752;2023-09-30T07:07:04;9.07;;;5.13;;
10947;SDS011;5526;42.070;24.752;2023-09-30T07:09:31;9.20;;;5.07;;
10947;SDS011;5526;42.070;24.752;2023-09-30T07:11:58;9.15;;;4.95;;
10947;SDS011;5526;42.070;24.752;2023-09-30T07:14:26;6.57;;;4.38;;
10947;SDS011;5526;42.070;24.752;2023-09-30T07:16:53;8.30;;;4.95;;
10947;SDS011;5526;42.070;24.752;2023-09-30T07:19:21;6.72;;;4.97;;
10947;SDS011;5526;42.070;24.752;2023-09-30T07:21:48;8.65;;;4.72;;
10947;SDS011;5526;42.070;24.752;2023-09-30T07:24:16;7.68;;;4.35;;
10947;SDS011;5526;42.070;24.752;2023-09-30T07:26:43;10.20;;;4.88;;
10947;SDS011;5526;42.070;24.752;2023-09-30T07:29:10;8.95;;;5.07;;
10947;SDS011;5526;42.070;24.752;2023-09-30T07:31:38;8.32;;;4.63;;
10947;SDS011;5526;42.070;24.752;2023-09-30T07:34:05;8.05;;;5.00;;
10947;SDS011;5526;42.070;24.752;2023-09-30T07:36:32;7.03;;;4.70;;
10947;SDS011;5526;42.070;24.752;2023-09-30T07:38:59;6.63;;;4.47;;
10947;SDS011;5526;42.070;24.752;2023-09-30T07:41:28;6.15;;;5.18;;
10947;SDS011;5526;42.070;24.752;2023-09-30T07:44:02;6.97;;;4.97;;
10947;SDS011;5526;42.070;24.752;2023-09-30T07:46:30;8.30;;;5.20;;
10947;SDS011;5526;42.070;24.752;2023-09-30T07:48:57;8.05;;;5.05;;
10947;SDS011;5526;42.070;24.752;2023-09-30T07:51:25;8.55;;;4.53;;
10947;SDS011;5526;42.070;24.752;2023-09-30T07:53:52;7.47;;;5.00;;
10947;SDS011;5526;42.070;24.752;2023-09-30T07:56:19;8.50;;;4.80;;
10947;SDS011;5526;42.070;24.752;2023-09-30T07:58:49;8.15;;;5.22;;
10947;SDS011;5526;42.070;24.752;2023-09-30T08:01:16;6.15;;;4.85;;
10947;SDS011;5526;42.070;24.752;2023-09-30T08:03:43;5.45;;;4.35;;
10947;SDS011;5526;42.070;24.752;2023-09-30T08:06:10;5.85;;;4.82;;
10947;SDS011;5526;42.070;24.752;2023-09-30T08:08:37;7.20;;;5.00;;
10947;SDS011;5526;42.070;24.752;2023-09-30T08:11:05;5.28;;;4.70;;
10947;SDS011;5526;42.070;24.752;2023-09-30T08:13:32;9.82;;;5.07;;
10947;SDS011;5526;42.070;24.752;2023-09-30T08:16:01;8.10;;;4.82;;
10947;SDS011;5526;42.070;24.752;2023-09-30T08:18:28;5.70;;;4.72;;
10947;SDS011;5526;42.070;24.752;2023-09-30T08:20:55;8.27;;;4.82;;
10947;SDS011;5526;42.070;24.752;2023-09-30T08:23:22;8.15;;;5.10;;
10947;SDS011;5526;42.070;24.752;2023-09-30T08:25:50;6.97;;;4.60;;
10947;SDS011;5526;42.070;24.752;2023-09-30T08:28:17;5.57;;;4.97;;
10947;SDS011;5526;42.070;24.752;2023-09-30T08:30:44;8.02;;;4.63;;
10947;SDS011;5526;42.070;24.752;2023-09-30T08:33:13;9.55;;;4.80;;
10947;SDS011;5526;42.070;24.752;2023-09-30T08:35:41;10.52;;;4.65;;
10947;SDS011;5526;42.070;24.752;2023-09-30T08:38:08;7.50;;;4.22;;
10947;SDS011;5526;42.070;24.752;2023-09-30T08:40:35;14.50;;;4.93;;
10947;SDS011;5526;42.070;24.752;2023-09-30T08:43:04;9.73;;;5.05;;
10947;SDS011;5526;42.070;24.752;2023-09-30T08:45:32;14.20;;;4.63;;
10947;SDS011;5526;42.070;24.752;2023-09-30T08:48:03;6.53;;;4.90;;
10947;SDS011;5526;42.070;24.752;2023-09-30T08:50:33;7.43;;;5.53;;
10947;SDS011;5526;42.070;24.752;2023-09-30T08:53:04;8.10;;;5.28;;
10947;SDS011;5526;42.070;24.752;2023-09-30T08:55:32;9.45;;;5.20;;
10947;SDS011;5526;42.070;24.752;2023-09-30T08:58:04;8.75;;;4.95;;
10947;SDS011;5526;42.070;24.752;2023-09-30T09:00:31;7.47;;;4.97;;
10947;SDS011;5526;42.070;24.752;2023-09-30T09:02:58;7.32;;;4.72;;
10947;SDS011;5526;42.070;24.752;2023-09-30T09:05:25;7.47;;;5.03;;
10947;SDS011;5526;42.070;24.752;2023-09-30T09:07:54;8.15;;;5.18;;
10947;SDS011;5526;42.070;24.752;2023-09-30T09:10:21;8.23;;;5.28;;
10947;SDS011;5526;42.070;24.752;2023-09-30T09:12:54;6.82;;;5.43;;
10947;SDS011;5526;42.070;24.752;2023-09-30T09:15:23;7.88;;;5.38;;
10947;SDS011;5526;42.070;24.752;2023-09-30T09:17:51;9.63;;;5.53;;
10947;SDS011;5526;42.070;24.752;2023-09-30T09:20:19;9.20;;;7.00;;
10947;SDS011;5526;42.070;24.752;2023-09-30T09:22:48;5.45;;;4.68;;
10947;SDS011;5526;42.070;24.752;2023-09-30T09:25:20;4.72;;;4.25;;
10947;SDS011;5526;42.070;24.752;2023-09-30T09:27:48;5.97;;;5.07;;
10947;SDS011;5526;42.070;24.752;2023-09-30T09:30:16;5.95;;;5.25;;
10947;SDS011;5526;42.070;24.752;2023-09-30T09:32:54;5.13;;;4.63;;
10947;SDS011;5526;42.070;24.752;2023-09-30T09:35:25;9.00;;;5.10;;
10947;SDS011;5526;42.070;24.752;2023-09-30T09:37:54;7.35;;;4.60;;
10947;SDS011;5526;42.070;24.752;2023-09-30T09:40:24;7.70;;;4.90;;
10947;SDS011;5526;42.070;24.752;2023-09-30T09:42:53;6.88;;;5.28;;
10947;SDS011;5526;42.070;24.752;2023-09-30T09:45:21;7.82;;;4.80;;
10947;SDS011;5526;42.070;24.752;2023-09-30T09:47:51;6.65;;;5.10;;
10947;SDS011;5526;42.070;24.752;2023-09-30T09:50:19;10.32;;;5.20;;
10947;SDS011;5526;42.070;24.752;2023-09-30T09:52:47;7.93;;;5.00;;
10947;SDS011;5526;42.070;24.752;2023-09-30T09:55:16;7.20;;;5.10;;
10947;SDS011;5526;42.070;24.752;2023-09-30T09:57:45;8.45;;;4.80;;
10947;SDS011;5526;42.070;24.752;2023-09-30T10:00:14;10.05;;;5.03;;
10947;SDS011;5526;42.070;24.752;2023-09-30T10:02:45;7.15;;;4.85;;
10947;SDS011;5526;42.070;24.752;2023-09-30T10:05:12;8.95;;;5.18;;
10947;SDS011;5526;42.070;24.752;2023-09-30T10:07:43;10.18;;;5.80;;
10947;SDS011;5526;42.070;24.752;2023-09-30T10:10:17;6.63;;;5.32;;
10947;SDS011;5526;42.070;24.752;2023-09-30T10:12:47;5.57;;;4.90;;
10947;SDS011;5526;42.070;24.752;2023-09-30T10:18:09;8.55;;;5.40;;
10947;SDS011;5526;42.070;24.752;2023-09-30T10:20:37;8.30;;;4.72;;
10947;SDS011;5526;42.070;24.752;2023-09-30T10:23:22;7.78;;;4.90;;
10947;SDS011;5526;42.070;24.752;2023-09-30T10:25:52;7.40;;;4.80;;
10947;SDS011;5526;42.070;24.752;2023-09-30T10:28:33;7.25;;;4.70;;
10947;SDS011;5526;42.070;24.752;2023-09-30T10:31:11;7.63;;;4.97;;
10947;SDS011;5526;42.070;24.752;2023-09-30T10:36:47;12.38;;;5.28;;
10947;SDS011;5526;42.070;24.752;2023-09-30T10:39:19;8.55;;;5.00;;
10947;SDS011;5526;42.070;24.752;2023-09-30T10:48:33;10.93;;;5.05;;
10947;SDS011;5526;42.070;24.752;2023-09-30T10:51:10;7.57;;;4.88;;
10947;SDS011;5526;42.070;24.752;2023-09-30T10:53:41;7.70;;;5.03;;
10947;SDS011;5526;42.070;24.752;2023-09-30T10:56:09;6.63;;;4.85;;
10947;SDS011;5526;42.070;24.752;2023-09-30T10:58:40;5.43;;;4.72;;
10947;SDS011;5526;42.070;24.752;2023-09-30T11:01:10;6.45;;;4.68;;
10947;SDS011;5526;42.070;24.752;2023-09-30T11:03:38;8.95;;;4.53;;
10947;SDS011;5526;42.070;24.752;2023-09-30T11:06:06;7.90;;;5.00;;
10947;SDS011;5526;42.070;24.752;2023-09-30T11:08:35;5.60;;;4.80;;
10947;SDS011;5526;42.070;24.752;2023-09-30T11:11:03;9.52;;;4.75;;
10947;SDS011;5526;42.070;24.752;2023-09-30T11:13:33;6.28;;;4.68;;
10947;SDS011;5526;42.070;24.752;2023-09-30T11:16:01;5.90;;;4.97;;
10947;SDS011;5526;42.070;24.752;2023-09-30T11:18:32;7.53;;;4.85;;
10947;SDS011;5526;42.070;24.752;2023-09-30T11:21:06;7.75;;;4.72;;
10947;SDS011;5526;42.070;24.752;2023-09-30T11:23:35;7.47;;;5.28;;
10947;SDS011;5526;42.070;24.752;2023-09-30T11:26:03;7.50;;;5.03;;
10947;SDS011;5526;42.070;24.752;2023-09-30T11:28:38;5.45;;;4.95;;
10947;SDS011;5526;42.070;24.752;2023-09-30T11:31:10;7.75;;;5.13;;
10947;SDS011;5526;42.070;24.752;2023-09-30T11:33:50;8.40;;;5.28;;
10947;SDS011;5526;42.070;24.752;2023-09-30T11:36:18;8.90;;;4.80;;
10947;SDS011;5526;42.070;24.752;2023-09-30T11:38:47;7.78;;;5.10;;
10947;SDS011;5526;42.070;24.752;2023-09-30T11:41:15;6.40;;;4.75;;
10947;SDS011;5526;42.070;24.752;2023-09-30T11:44:03;8.27;;;5.07;;
10947;SDS011;5526;42.070;24.752;2023-09-30T11:46:32;5.70;;;5.15;;
10947;SDS011;5526;42.070;24.752;2023-09-30T11:49:23;5.47;;;4.95;;
10947;SDS011;5526;42.070;24.752;2023-09-30T11:51:52;7.80;;;4.85;;
10947;SDS011;5526;42.070;24.752;2023-09-30T11:54:19;7.90;;;5.50;;
10947;SDS011;5526;42.070;24.752;2023-09-30T11:56:47;5.70;;;5.15;;
10947;SDS011;5526;42.070;24.752;2023-09-30T11:59:16;7.70;;;5.40;;
10947;SDS011;5526;42.070;24.752;2023-09-30T12:01:45;6.10;;;4.70;;
10947;SDS011;5526;42.070;24.752;2023-09-30T12:04:15;8.05;;;5.20;;
10947;SDS011;5526;42.070;24.752;2023-09-30T12:06:44;6.45;;;4.97;;
10947;SDS011;5526;42.070;24.752;2023-09-30T12:09:12;9.77;;;5.28;;
10947;SDS011;5526;42.070;24.752;2023-09-30T12:11:40;10.48;;;5.05;;
10947;SDS011;5526;42.070;24.752;2023-09-30T12:14:09;5.53;;;4.95;;
10947;SDS011;5526;42.070;24.752;2023-09-30T12:16:38;10.07;;;5.35;;
10947;SDS011;5526;42.070;24.752;2023-09-30T12:19:06;7.95;;;5.55;;
10947;SDS011;5526;42.070;24.752;2023-09-30T12:21:35;6.85;;;5.85;;
10947;SDS011;5526;42.070;24.752;2023-09-30T12:24:03;6.70;;;5.03;;
10947;SDS011;5526;42.070;24.752;2023-09-30T12:26:30;6.03;;;5.00;;
10947;SDS011;5526;42.070;24.752;2023-09-30T12:28:57;8.20;;;5.20;;
10947;SDS011;5526;42.070;24.752;2023-09-30T12:31:24;6.55;;;4.85;;
10947;SDS011;5526;42.070;24.752;2023-09-30T12:33:51;7.75;;;5.05;;
10947;SDS011;5526;42.070;24.752;2023-09-30T12:36:19;5.63;;;4.97;;
10947;SDS011;5526;42.070;24.752;2023-09-30T12:38:48;5.57;;;4.90;;
10947;SDS011;5526;42.070;24.752;2023-09-30T12:41:15;8.48;;;5.10;;
10947;SDS011;5526;42.070;24.752;2023-09-30T12:43:44;8.55;;;5.45;;
10947;SDS011;5526;42.070;24.752;2023-09-30T12:46:11;5.93;;;5.00;;
10947;SDS011;5526;42.070;24.752;2023-09-30T12:48:39;7.20;;;5.40;;
10947;SDS011;5526;42.070;24.752;2023-09-30T12:51:07;6.50;;;5.00;;
10947;SDS011;5526;42.070;24.752;2023-09-30T12:53:34;9.75;;;5.20;;
10947;SDS011;5526;42.070;24.752;2023-09-30T12:56:03;5.47;;;5.00;;
10947;SDS011;5526;42.070;24.752;2023-09-30T12:58:30;5.93;;;5.05;;
10947;SDS011;5526;42.070;24.752;2023-09-30T13:00:58;5.85;;;4.97;;
10947;SDS011;5526;42.070;24.752;2023-09-30T13:03:26;6.80;;;4.90;;
10947;SDS011;5526;42.070;24.752;2023-09-30T13:05:53;5.50;;;4.93;;
10947;SDS011;5526;42.070;24.752;2023-09-30T13:08:21;6.43;;;4.60;;
10947;SDS011;5526;42.070;24.752;2023-09-30T13:10:48;6.75;;;5.10;;
10947;SDS011;5526;42.070;24.752;2023-09-30T13:13:17;8.40;;;5.18;;
10947;SDS011;5526;42.070;24.752;2023-09-30T13:15:44;8.80;;;5.47;;
10947;SDS011;5526;42.070;24.752;2023-09-30T13:18:11;9.20;;;5.63;;
10947;SDS011;5526;42.070;24.752;2023-09-30T13:20:39;5.43;;;4.78;;
10947;SDS011;5526;42.070;24.752;2023-09-30T13:23:06;5.78;;;5.25;;
10947;SDS011;5526;42.070;24.752;2023-09-30T13:25:33;6.93;;;5.13;;
10947;SDS011;5526;42.070;24.752;2023-09-30T13:28:00;8.32;;;5.35;;
10947;SDS011;5526;42.070;24.752;2023-09-30T13:30:29;7.88;;;4.82;;
10947;SDS011;5526;42.070;24.752;2023-09-30T13:32:57;6.03;;;4.85;;
10947;SDS011;5526;42.070;24.752;2023-09-30T13:35:24;5.00;;;4.60;;
10947;SDS011;5526;42.070;24.752;2023-09-30T13:37:51;5.57;;;4.60;;
10947;SDS011;5526;42.070;24.752;2023-09-30T13:40:18;7.93;;;4.78;;
10947;SDS011;5526;42.070;24.752;2023-09-30T13:42:46;8.43;;;5.03;;
10947;SDS011;5526;42.070;24.752;2023-09-30T13:45:13;6.68;;;4.93;;
10947;SDS011;5526;42.070;24.752;2023-09-30T13:47:43;6.18;;;4.65;;
10947;SDS011;5526;42.070;24.752;2023-09-30T13:50:10;5.28;;;4.72;;
10947;SDS011;5526;42.070;24.752;2023-09-30T13:52:38;5.75;;;5.00;;
10947;SDS011;5526;42.070;24.752;2023-09-30T13:55:05;9.20;;;4.65;;
10947;SDS011;5526;42.070;24.752;2023-09-30T13:57:33;5.20;;;4.75;;
10947;SDS011;5526;42.070;24.752;2023-09-30T14:00:01;6.75;;;4.60;;
10947;SDS011;5526;42.070;24.752;2023-09-30T14:02:31;5.47;;;4.68;;
10947;SDS011;5526;42.070;24.752;2023-09-30T14:05:00;6.47;;;4.53;;
10947;SDS011;5526;42.070;24.752;2023-09-30T14:07:27;8.15;;;4.20;;
10947;SDS011;5526;42.070;24.752;2023-09-30T14:09:54;6.63;;;4.55;;
10947;SDS011;5526;42.070;24.752;2023-09-30T14:12:21;5.07;;;4.43;;
10947;SDS011;5526;42.070;24.752;2023-09-30T14:14:48;7.50;;;4.28;;
10947;SDS011;5526;42.070;24.752;2023-09-30T14:17:16;5.80;;;4.20;;
10947;SDS011;5526;42.070;24.752;2023-09-30T14:19:44;6.07;;;4.30;;
10947;SDS011;5526;42.070;24.752;2023-09-30T14:22:12;5.22;;;4.60;;
10947;SDS011;5526;42.070;24.752;2023-09-30T14:24:39;5.13;;;4.55;;
10947;SDS011;5526;42.070;24.752;2023-09-30T14:27:06;6.43;;;4.60;;
10947;SDS011;5526;42.070;24.752;2023-09-30T14:29:34;6.60;;;4.30;;
10947;SDS011;5526;42.070;24.752;2023-09-30T14:32:01;5.40;;;3.75;;
10947;SDS011;5526;42.070;24.752;2023-09-30T14:34:28;5.57;;;4.18;;
10947;SDS011;5526;42.070;24.752;2023-09-30T14:36:55;7.70;;;4.15;;
10947;SDS011;5526;42.070;24.752;2023-09-30T14:39:24;7.50;;;4.32;;
10947;SDS011;5526;42.070;24.752;2023-09-30T14:41:52;4.72;;;4.22;;
10947;SDS011;5526;42.070;24.752;2023-09-30T14:44:19;4.22;;;3.78;;
10947;SDS011;5526;42.070;24.752;2023-09-30T14:46:48;5.35;;;4.18;;
10947;SDS011;5526;42.070;24.752;2023-09-30T14:49:15;6.70;;;3.80;;
10947;SDS011;5526;42.070;24.752;2023-09-30T14:51:42;6.20;;;3.97;;
10947;SDS011;5526;42.070;24.752;2023-09-30T14:54:10;4.70;;;3.72;;
10947;SDS011;5526;42.070;24.752;2023-09-30T14:56:38;4.80;;;4.05;;
10947;SDS011;5526;42.070;24.752;2023-09-30T14:59:05;8.68;;;4.32;;
10947;SDS011;5526;42.070;24.752;2023-09-30T15:01:32;8.07;;;4.20;;
10947;SDS011;5526;42.070;24.752;2023-09-30T15:03:59;7.68;;;4.35;;
10947;SDS011;5526;42.070;24.752;2023-09-30T15:06:27;4.57;;;4.10;;